sensor_id;sensor_type;location;lat;lon;timestamp;pressure;altitude;pressure_sealevel;temperature;humidity
41690;BME280;27372;42.658;23.256;2023-04-04T00:01:15;92359.56;;;6.93;100.00
41690;BME280;27372;42.658;23.256;2023-04-04T00:03:41;92335.53;;;6.91;100.00
41690;BME280;27372;42.658;23.256;2023-04-04T00:06:07;92330.88;;;6.98;100.00
41690;BME280;27372;42.658;23.256;2023-04-04T00:08:32;92337.97;;;7.03;100.00
41690;BME280;27372;42.658;23.256;2023-04-04T00:11:01;92336.09;;;6.93;100.00
41690;BME280;27372;42.658;23.256;2023-04-04T00:13:27;92342.03;;;6.88;100.00
41690;BME280;27372;42.658;23.256;2023-04-04T00:15:53;92337.47;;;6.73;100.00
41690;BME280;27372;42.658;23.256;2023-04-04T00:18:19;92322.28;;;6.65;100.00
41690;BME280;27372;42.658;23.256;2023-04-04T00:20:45;92328.00;;;6.67;100.00
41690;BME280;27372;42.658;23.256;2023-04-04T00:23:11;92324.66;;;6.72;100.00
41690;BME280;27372;42.658;23.256;2023-04-04T00:25:37;92334.88;;;6.73;100.00
41690;BME280;27372;42.658;23.256;2023-04-04T00:28:02;92334.88;;;6.73;100.00
41690;BME280;27372;42.658;23.256;2023-04-04T00:30:29;92323.13;;;6.71;100.00
41690;BME280;27372;42.658;23.256;2023-04-04T00:32:55;92324.91;;;6.70;100.00
41690;BME280;27372;42.658;23.256;2023-04-04T00:35:21;92322.31;;;6.70;100.00
41690;BME280;27372;42.658;23.256;2023-04-04T00:37:46;92324.06;;;6.59;100.00
41690;BME280;27372;42.658;23.256;2023-04-04T00:40:12;92314.97;;;6.67;100.00
41690;BME280;27372;42.658;23.256;2023-04-04T00:42:37;92332.91;;;6.58;100.00
41690;BME280;27372;42.658;23.256;2023-04-04T00:45:07;92321.38;;;6.54;100.00
41690;BME280;27372;42.658;23.256;2023-04-04T00:47:33;92310.16;;;6.53;100.00
41690;BME280;27372;42.658;23.256;2023-04-04T00:49:59;92309.44;;;6.58;100.00
41690;BME280;27372;42.658;23.256;2023-04-04T00:52:25;92302.63;;;6.57;100.00
41690;BME280;27372;42.658;23.256;2023-04-04T00:54:51;92304.16;;;6.53;100.00
41690;BME280;27372;42.658;23.256;2023-04-04T00:57:17;92318.09;;;6.64;100.00
41690;BME280;27372;42.658;23.256;2023-04-04T00:59:43;92323.50;;;6.57;100.00
41690;BME280;27372;42.658;23.256;2023-04-04T01:02:08;92328.53;;;6.64;100.00
41690;BME280;27372;42.658;23.256;2023-04-04T01:04:34;92338.78;;;6.71;100.00
41690;BME280;27372;42.658;23.256;2023-04-04T01:07:00;92346.34;;;6.72;100.00
41690;BME280;27372;42.658;23.256;2023-04-04T01:09:27;92355.38;;;6.64;100.00
41690;BME280;27372;42.658;23.256;2023-04-04T01:11:54;92367.69;;;6.69;100.00
41690;BME280;27372;42.658;23.256;2023-04-04T01:14:20;92368.94;;;6.61;100.00
41690;BME280;27372;42.658;23.256;2023-04-04T01:16:47;92377.19;;;6.80;100.00
41690;BME280;27372;42.658;23.256;2023-04-04T01:22:01;92352.88;;;7.07;100.00
41690;BME280;27372;42.658;23.256;2023-04-04T01:24:31;92358.50;;;7.21;100.00
41690;BME280;27372;42.658;23.256;2023-04-04T01:26:57;92344.47;;;7.33;100.00
41690;BME280;27372;42.658;23.256;2023-04-04T01:29:25;92351.72;;;7.58;100.00
41690;BME280;27372;42.658;23.256;2023-04-04T01:32:12;92353.63;;;7.73;100.00
41690;BME280;27372;42.658;23.256;2023-04-04T01:34:45;92351.41;;;7.97;100.00
41690;BME280;27372;42.658;23.256;2023-04-04T01:37:25;92344.59;;;8.01;100.00
41690;BME280;27372;42.658;23.256;2023-04-04T01:39:59;92335.75;;;8.07;100.00
41690;BME280;27372;42.658;23.256;2023-04-04T01:42:29;92345.22;;;8.29;100.00
41690;BME280;27372;42.658;23.256;2023-04-04T01:44:56;92335.34;;;8.42;100.00
41690;BME280;27372;42.658;23.256;2023-04-04T01:47:22;92317.84;;;8.47;100.00
41690;BME280;27372;42.658;23.256;2023-04-04T01:49:48;92312.91;;;8.56;100.00
41690;BME280;27372;42.658;23.256;2023-04-04T01:52:13;92313.38;;;8.43;100.00
41690;BME280;27372;42.658;23.256;2023-04-04T01:54:38;92311.53;;;8.33;100.00
41690;BME280;27372;42.658;23.256;2023-04-04T01:57:04;92306.28;;;7.64;100.00
41690;BME280;27372;42.658;23.256;2023-04-04T01:59:30;92293.94;;;7.54;100.00
41690;BME280;27372;42.658;23.256;2023-04-04T02:01:55;92291.63;;;7.63;100.00
41690;BME280;27372;42.658;23.256;2023-04-04T02:04:21;92300.38;;;7.41;100.00
41690;BME280;27372;42.658;23.256;2023-04-04T02:06:47;92298.94;;;7.18;100.00
41690;BME280;27372;42.658;23.256;2023-04-04T02:09:12;92308.28;;;7.46;100.00
41690;BME280;27372;42.658;23.256;2023-04-04T02:11:38;92305.22;;;7.65;100.00
41690;BME280;27372;42.658;23.256;2023-04-04T02:14:04;92309.47;;;7.76;100.00
41690;BME280;27372;42.658;23.256;2023-04-04T02:16:29;92308.56;;;8.08;100.00
41690;BME280;27372;42.658;23.256;2023-04-04T02:18:55;92316.56;;;7.86;100.00
41690;BME280;27372;42.658;23.256;2023-04-04T02:21:21;92302.78;;;8.01;100.00
41690;BME280;27372;42.658;23.256;2023-04-04T02:23:46;92297.03;;;8.04;100.00
41690;BME280;27372;42.658;23.256;2023-04-04T02:26:12;92301.81;;;8.23;100.00
41690;BME280;27372;42.658;23.256;2023-04-04T02:28:37;92311.97;;;8.14;100.00
41690;BME280;27372;42.658;23.256;2023-04-04T02:31:02;92296.00;;;8.05;100.00
41690;BME280;27372;42.658;23.256;2023-04-04T02:33:29;92299.41;;;8.16;100.00
41690;BME280;27372;42.658;23.256;2023-04-04T02:35:58;92302.09;;;8.32;100.00
41690;BME280;27372;42.658;23.256;2023-04-04T02:38:24;92293.19;;;8.28;100.00
41690;BME280;27372;42.658;23.256;2023-04-04T02:40:50;92308.63;;;8.39;100.00
41690;BME280;27372;42.658;23.256;2023-04-04T02:43:16;92316.19;;;8.20;100.00
41690;BME280;27372;42.658;23.256;2023-04-04T02:45:41;92304.69;;;8.27;100.00
41690;BME280;27372;42.658;23.256;2023-04-04T02:48:07;92299.47;;;8.37;100.00
41690;BME280;27372;42.658;23.256;2023-04-04T02:50:32;92307.88;;;8.44;100.00
41690;BME280;27372;42.658;23.256;2023-04-04T02:52:59;92301.81;;;7.59;100.00
41690;BME280;27372;42.658;23.256;2023-04-04T02:55:25;92312.03;;;7.66;100.00
41690;BME280;27372;42.658;23.256;2023-04-04T02:57:51;92309.59;;;7.49;100.00
41690;BME280;27372;42.658;23.256;2023-04-04T03:00:16;92312.13;;;7.39;100.00
41690;BME280;27372;42.658;23.256;2023-04-04T03:02:42;92321.88;;;7.11;100.00
41690;BME280;27372;42.658;23.256;2023-04-04T03:05:08;92321.38;;;6.81;100.00
41690;BME280;27372;42.658;23.256;2023-04-04T03:07:33;92314.38;;;6.87;100.00
41690;BME280;27372;42.658;23.256;2023-04-04T03:09:58;92318.41;;;6.18;100.00
41690;BME280;27372;42.658;23.256;2023-04-04T03:12:24;92320.28;;;6.22;100.00
41690;BME280;27372;42.658;23.256;2023-04-04T03:14:49;92331.81;;;6.54;100.00
41690;BME280;27372;42.658;23.256;2023-04-04T03:17:15;92327.47;;;6.37;100.00
41690;BME280;27372;42.658;23.256;2023-04-04T03:19:42;92325.25;;;6.24;100.00
41690;BME280;27372;42.658;23.256;2023-04-04T03:22:07;92325.28;;;5.85;100.00
41690;BME280;27372;42.658;23.256;2023-04-04T03:24:34;92316.88;;;5.78;100.00
41690;BME280;27372;42.658;23.256;2023-04-04T03:26:59;92337.47;;;5.79;100.00
41690;BME280;27372;42.658;23.256;2023-04-04T03:29:27;92319.91;;;5.69;100.00
41690;BME280;27372;42.658;23.256;2023-04-04T03:31:52;92327.34;;;5.83;100.00
41690;BME280;27372;42.658;23.256;2023-04-04T03:34:18;92328.38;;;5.82;100.00
41690;BME280;27372;42.658;23.256;2023-04-04T03:36:43;92328.31;;;5.99;100.00
41690;BME280;27372;42.658;23.256;2023-04-04T03:39:11;92338.03;;;5.81;100.00
41690;BME280;27372;42.658;23.256;2023-04-04T03:41:36;92335.78;;;5.90;100.00
41690;BME280;27372;42.658;23.256;2023-04-04T03:44:05;92330.75;;;5.83;100.00
41690;BME280;27372;42.658;23.256;2023-04-04T03:46:30;92325.66;;;5.94;100.00
41690;BME280;27372;42.658;23.256;2023-04-04T03:48:56;92324.94;;;6.20;100.00
41690;BME280;27372;42.658;23.256;2023-04-04T03:51:22;92340.78;;;6.14;100.00
41690;BME280;27372;42.658;23.256;2023-04-04T03:53:52;92334.41;;;6.04;100.00
41690;BME280;27372;42.658;23.256;2023-04-04T03:56:17;92327.44;;;5.88;100.00
41690;BME280;27372;42.658;23.256;2023-04-04T03:58:43;92330.78;;;6.05;100.00
41690;BME280;27372;42.658;23.256;2023-04-04T04:01:09;92339.47;;;5.94;100.00
41690;BME280;27372;42.658;23.256;2023-04-04T04:03:35;92334.66;;;6.03;100.00
41690;BME280;27372;42.658;23.256;2023-04-04T04:06:01;92337.31;;;6.08;100.00
41690;BME280;27372;42.658;23.256;2023-04-04T04:08:27;92332.91;;;6.09;100.00
41690;BME280;27372;42.658;23.256;2023-04-04T04:10:53;92342.66;;;6.18;100.00
41690;BME280;27372;42.658;23.256;2023-04-04T04:13:21;92325.53;;;6.28;100.00
41690;BME280;27372;42.658;23.256;2023-04-04T04:15:47;92331.41;;;6.40;100.00
41690;BME280;27372;42.658;23.256;2023-04-04T04:18:13;92340.72;;;6.58;100.00
41690;BME280;27372;42.658;23.256;2023-04-04T04:20:38;92332.47;;;6.66;100.00
41690;BME280;27372;42.658;23.256;2023-04-04T04:23:04;92337.88;;;6.60;100.00
41690;BME280;27372;42.658;23.256;2023-04-04T04:25:29;92350.16;;;6.64;100.00
41690;BME280;27372;42.658;23.256;2023-04-04T04:27:55;92348.00;;;6.56;100.00
41690;BME280;27372;42.658;23.256;2023-04-04T04:30:21;92343.88;;;6.60;100.00
41690;BME280;27372;42.658;23.256;2023-04-04T04:32:48;92353.59;;;6.65;100.00
41690;BME280;27372;42.658;23.256;2023-04-04T04:35:14;92354.66;;;6.69;100.00
41690;BME280;27372;42.658;23.256;2023-04-04T04:37:39;92359.56;;;6.65;100.00
41690;BME280;27372;42.658;23.256;2023-04-04T04:40:05;92356.50;;;6.46;100.00
41690;BME280;27372;42.658;23.256;2023-04-04T04:42:31;92359.81;;;6.36;100.00
41690;BME280;27372;42.658;23.256;2023-04-04T04:44:56;92370.16;;;6.53;100.00
41690;BME280;27372;42.658;23.256;2023-04-04T04:47:22;92369.84;;;6.77;100.00
41690;BME280;27372;42.658;23.256;2023-04-04T04:49:47;92373.84;;;6.85;100.00
41690;BME280;27372;42.658;23.256;2023-04-04T04:52:14;92376.75;;;6.89;100.00
41690;BME280;27372;42.658;23.256;2023-04-04T04:54:39;92385.03;;;7.08;100.00
41690;BME280;27372;42.658;23.256;2023-04-04T04:57:05;92382.59;;;7.34;100.00
41690;BME280;27372;42.658;23.256;2023-04-04T04:59:34;92377.78;;;7.53;100.00
41690;BME280;27372;42.658;23.256;2023-04-04T05:02:01;92380.25;;;7.32;100.00
41690;BME280;27372;42.658;23.256;2023-04-04T05:04:26;92386.91;;;6.85;100.00
41690;BME280;27372;42.658;23.256;2023-04-04T05:06:52;92384.25;;;6.80;100.00
41690;BME280;27372;42.658;23.256;2023-04-04T05:09:18;92389.69;;;6.78;100.00
41690;BME280;27372;42.658;23.256;2023-04-04T05:11:43;92397.34;;;6.85;100.00
41690;BME280;27372;42.658;23.256;2023-04-04T05:14:09;92399.41;;;6.83;100.00
41690;BME280;27372;42.658;23.256;2023-04-04T05:16:34;92394.88;;;7.01;100.00
41690;BME280;27372;42.658;23.256;2023-04-04T05:18:59;92395.94;;;7.05;100.00
41690;BME280;27372;42.658;23.256;2023-04-04T05:21:25;92403.88;;;8.38;100.00
41690;BME280;27372;42.658;23.256;2023-04-04T05:23:53;92394.66;;;9.77;100.00
41690;BME280;27372;42.658;23.256;2023-04-04T05:26:19;92396.00;;;9.38;100.00
41690;BME280;27372;42.658;23.256;2023-04-04T05:28:44;92398.84;;;9.11;100.00
41690;BME280;27372;42.658;23.256;2023-04-04T05:31:10;92402.19;;;8.75;100.00
41690;BME280;27372;42.658;23.256;2023-04-04T05:33:36;92395.78;;;8.40;100.00
41690;BME280;27372;42.658;23.256;2023-04-04T05:36:01;92403.41;;;7.99;100.00
41690;BME280;27372;42.658;23.256;2023-04-04T05:38:27;92405.81;;;8.05;100.00
41690;BME280;27372;42.658;23.256;2023-04-04T05:40:53;92405.81;;;8.59;100.00
41690;BME280;27372;42.658;23.256;2023-04-04T05:43:18;92407.41;;;10.40;100.00
41690;BME280;27372;42.658;23.256;2023-04-04T05:45:44;92407.72;;;11.69;100.00
41690;BME280;27372;42.658;23.256;2023-04-04T05:48:10;92418.75;;;12.30;100.00
41690;BME280;27372;42.658;23.256;2023-04-04T05:50:35;92413.91;;;12.85;99.71
41690;BME280;27372;42.658;23.256;2023-04-04T05:53:01;92415.63;;;12.95;89.99
41690;BME280;27372;42.658;23.256;2023-04-04T05:55:27;92421.97;;;12.94;90.70
41690;BME280;27372;42.658;23.256;2023-04-04T05:57:55;92426.38;;;13.18;92.11
41690;BME280;27372;42.658;23.256;2023-04-04T06:00:21;92428.25;;;12.74;95.79
41690;BME280;27372;42.658;23.256;2023-04-04T06:02:47;92414.56;;;11.99;90.13
41690;BME280;27372;42.658;23.256;2023-04-04T06:05:13;92419.94;;;12.18;94.05
41690;BME280;27372;42.658;23.256;2023-04-04T06:07:39;92426.81;;;12.63;96.39
41690;BME280;27372;42.658;23.256;2023-04-04T06:10:05;92426.59;;;12.59;91.75
41690;BME280;27372;42.658;23.256;2023-04-04T06:12:31;92421.59;;;11.00;91.40
41690;BME280;27372;42.658;23.256;2023-04-04T06:14:58;92432.84;;;11.45;92.75
41690;BME280;27372;42.658;23.256;2023-04-04T06:17:25;92440.88;;;10.75;89.32
41690;BME280;27372;42.658;23.256;2023-04-04T06:19:51;92443.47;;;10.80;91.52
41690;BME280;27372;42.658;23.256;2023-04-04T06:22:17;92450.22;;;10.05;96.32
41690;BME280;27372;42.658;23.256;2023-04-04T06:24:42;92438.41;;;9.97;97.95
41690;BME280;27372;42.658;23.256;2023-04-04T06:27:07;92447.06;;;9.92;95.68
41690;BME280;27372;42.658;23.256;2023-04-04T06:29:33;92441.31;;;9.85;95.56
41690;BME280;27372;42.658;23.256;2023-04-04T06:31:58;92443.16;;;9.59;97.78
41690;BME280;27372;42.658;23.256;2023-04-04T06:34:25;92451.56;;;9.51;98.87
41690;BME280;27372;42.658;23.256;2023-04-04T06:36:50;92455.47;;;9.32;99.06
41690;BME280;27372;42.658;23.256;2023-04-04T06:39:16;92456.91;;;8.77;99.94
41690;BME280;27372;42.658;23.256;2023-04-04T06:41:41;92475.16;;;8.56;98.64
41690;BME280;27372;42.658;23.256;2023-04-04T06:44:07;92470.81;;;8.34;99.34
41690;BME280;27372;42.658;23.256;2023-04-04T06:46:32;92477.03;;;8.18;99.98
41690;BME280;27372;42.658;23.256;2023-04-04T06:48:58;92484.22;;;7.63;99.91
41690;BME280;27372;42.658;23.256;2023-04-04T06:51:27;92498.22;;;6.74;100.00
41690;BME280;27372;42.658;23.256;2023-04-04T06:53:55;92494.50;;;6.70;100.00
41690;BME280;27372;42.658;23.256;2023-04-04T06:56:21;92502.84;;;6.28;100.00
41690;BME280;27372;42.658;23.256;2023-04-04T06:58:47;92506.09;;;6.35;100.00
41690;BME280;27372;42.658;23.256;2023-04-04T07:01:13;92507.38;;;5.81;100.00
41690;BME280;27372;42.658;23.256;2023-04-04T07:03:38;92512.84;;;5.63;100.00
41690;BME280;27372;42.658;23.256;2023-04-04T07:06:04;92534.44;;;5.63;100.00
41690;BME280;27372;42.658;23.256;2023-04-04T07:08:29;92537.91;;;5.52;100.00
41690;BME280;27372;42.658;23.256;2023-04-04T07:10:57;92550.44;;;5.38;100.00
41690;BME280;27372;42.658;23.256;2023-04-04T07:13:23;92564.03;;;5.57;100.00
41690;BME280;27372;42.658;23.256;2023-04-04T07:15:49;92569.59;;;5.32;99.81
41690;BME280;27372;42.658;23.256;2023-04-04T07:18:15;92574.34;;;4.94;100.00
41690;BME280;27372;42.658;23.256;2023-04-04T07:20:40;92582.56;;;4.62;100.00
41690;BME280;27372;42.658;23.256;2023-04-04T07:23:08;92586.34;;;4.95;100.00
41690;BME280;27372;42.658;23.256;2023-04-04T07:25:33;92585.81;;;5.22;100.00
41690;BME280;27372;42.658;23.256;2023-04-04T07:27:59;92600.78;;;4.50;99.61
41690;BME280;27372;42.658;23.256;2023-04-04T07:30:24;92609.19;;;4.93;100.00
41690;BME280;27372;42.658;23.256;2023-04-04T07:32:57;92609.06;;;5.00;99.17
41690;BME280;27372;42.658;23.256;2023-04-04T07:35:23;92617.03;;;4.57;99.09
41690;BME280;27372;42.658;23.256;2023-04-04T07:37:48;92611.19;;;4.50;99.06
41690;BME280;27372;42.658;23.256;2023-04-04T07:40:14;92629.00;;;4.11;100.00
41690;BME280;27372;42.658;23.256;2023-04-04T07:42:44;92631.28;;;4.55;100.00
41690;BME280;27372;42.658;23.256;2023-04-04T07:45:11;92631.28;;;4.31;99.41
41690;BME280;27372;42.658;23.256;2023-04-04T07:47:36;92635.25;;;4.45;99.62
41690;BME280;27372;42.658;23.256;2023-04-04T07:50:02;92650.97;;;4.27;97.26
41690;BME280;27372;42.658;23.256;2023-04-04T07:52:28;92638.50;;;4.05;100.00
41690;BME280;27372;42.658;23.256;2023-04-04T07:54:54;92641.09;;;4.29;100.00
41690;BME280;27372;42.658;23.256;2023-04-04T07:57:19;92662.34;;;3.71;99.61
41690;BME280;27372;42.658;23.256;2023-04-04T07:59:45;92660.25;;;3.50;100.00
41690;BME280;27372;42.658;23.256;2023-04-04T08:02:11;92646.34;;;3.44;100.00
41690;BME280;27372;42.658;23.256;2023-04-04T08:04:40;92649.22;;;3.66;100.00
41690;BME280;27372;42.658;23.256;2023-04-04T08:07:05;92649.19;;;3.54;100.00
41690;BME280;27372;42.658;23.256;2023-04-04T08:09:30;92665.59;;;3.67;100.00
41690;BME280;27372;42.658;23.256;2023-04-04T08:11:59;92669.38;;;3.52;99.85
41690;BME280;27372;42.658;23.256;2023-04-04T08:14:25;92677.13;;;3.40;99.92
41690;BME280;27372;42.658;23.256;2023-04-04T08:16:51;92677.91;;;3.71;97.81
41690;BME280;27372;42.658;23.256;2023-04-04T08:19:16;92687.81;;;3.93;97.47
41690;BME280;27372;42.658;23.256;2023-04-04T08:21:42;92690.91;;;4.02;96.01
41690;BME280;27372;42.658;23.256;2023-04-04T08:24:08;92692.28;;;3.74;95.04
41690;BME280;27372;42.658;23.256;2023-04-04T08:26:34;92688.47;;;3.88;96.10
41690;BME280;27372;42.658;23.256;2023-04-04T08:28:59;92695.22;;;3.78;95.15
41690;BME280;27372;42.658;23.256;2023-04-04T08:31:25;92701.19;;;3.97;96.51
41690;BME280;27372;42.658;23.256;2023-04-04T08:33:51;92690.56;;;4.10;93.97
41690;BME280;27372;42.658;23.256;2023-04-04T08:36:16;92719.81;;;4.06;94.94
41690;BME280;27372;42.658;23.256;2023-04-04T08:38:43;92719.94;;;3.68;93.04
41690;BME280;27372;42.658;23.256;2023-04-04T08:41:10;92712.88;;;3.87;93.26
41690;BME280;27372;42.658;23.256;2023-04-04T08:43:37;92717.75;;;3.65;94.46
41690;BME280;27372;42.658;23.256;2023-04-04T08:46:06;92711.44;;;4.03;95.55
41690;BME280;27372;42.658;23.256;2023-04-04T08:48:34;92713.75;;;3.51;94.41
41690;BME280;27372;42.658;23.256;2023-04-04T08:51:02;92717.06;;;3.58;95.69
41690;BME280;27372;42.658;23.256;2023-04-04T08:53:29;92710.13;;;3.33;96.98
41690;BME280;27372;42.658;23.256;2023-04-04T08:55:58;92719.88;;;3.38;96.50
41690;BME280;27372;42.658;23.256;2023-04-04T08:58:24;92727.63;;;3.56;95.06
41690;BME280;27372;42.658;23.256;2023-04-04T09:00:54;92726.09;;;3.55;93.16
41690;BME280;27372;42.658;23.256;2023-04-04T09:03:24;92724.88;;;3.39;92.11
41690;BME280;27372;42.658;23.256;2023-04-04T09:05:55;92734.25;;;3.40;93.76
41690;BME280;27372;42.658;23.256;2023-04-04T09:08:22;92740.81;;;3.24;91.43
41690;BME280;27372;42.658;23.256;2023-04-04T09:10:51;92740.06;;;3.54;92.80
41690;BME280;27372;42.658;23.256;2023-04-04T09:13:17;92733.50;;;3.33;94.25
41690;BME280;27372;42.658;23.256;2023-04-04T09:15:47;92735.59;;;3.62;93.40
41690;BME280;27372;42.658;23.256;2023-04-04T09:18:13;92731.94;;;3.81;93.66
41690;BME280;27372;42.658;23.256;2023-04-04T09:20:40;92736.78;;;4.08;90.87
41690;BME280;27372;42.658;23.256;2023-04-04T09:23:08;92730.41;;;3.24;90.57
41690;BME280;27372;42.658;23.256;2023-04-04T09:25:35;92733.28;;;3.53;91.26
41690;BME280;27372;42.658;23.256;2023-04-04T09:28:02;92727.66;;;3.19;91.47
41690;BME280;27372;42.658;23.256;2023-04-04T09:30:30;92744.38;;;3.61;91.35
41690;BME280;27372;42.658;23.256;2023-04-04T09:32:59;92735.44;;;3.56;90.22
41690;BME280;27372;42.658;23.256;2023-04-04T09:35:25;92740.91;;;3.48;90.94
41690;BME280;27372;42.658;23.256;2023-04-04T09:37:51;92746.25;;;3.72;92.13
41690;BME280;27372;42.658;23.256;2023-04-04T09:40:17;92757.53;;;3.66;91.41
41690;BME280;27372;42.658;23.256;2023-04-04T09:42:42;92756.56;;;3.23;92.10
41690;BME280;27372;42.658;23.256;2023-04-04T09:45:09;92748.22;;;3.39;92.05
41690;BME280;27372;42.658;23.256;2023-04-04T09:47:39;92746.00;;;3.24;90.24
41690;BME280;27372;42.658;23.256;2023-04-04T09:50:06;92746.41;;;3.40;89.82
41690;BME280;27372;42.658;23.256;2023-04-04T09:52:32;92763.72;;;3.28;91.47
41690;BME280;27372;42.658;23.256;2023-04-04T09:55:02;92751.03;;;3.38;89.37
41690;BME280;27372;42.658;23.256;2023-04-04T09:57:29;92758.72;;;3.63;89.26
41690;BME280;27372;42.658;23.256;2023-04-04T09:59:59;92759.88;;;3.67;88.31
41690;BME280;27372;42.658;23.256;2023-04-04T10:02:26;92751.00;;;3.56;87.43
41690;BME280;27372;42.658;23.256;2023-04-04T10:04:55;92744.09;;;3.13;89.88
41690;BME280;27372;42.658;23.256;2023-04-04T10:07:23;92747.00;;;3.42;90.13
41690;BME280;27372;42.658;23.256;2023-04-04T10:09:50;92740.94;;;3.11;89.18
41690;BME280;27372;42.658;23.256;2023-04-04T10:12:20;92764.72;;;3.64;89.45
41690;BME280;27372;42.658;23.256;2023-04-04T10:14:46;92761.63;;;3.55;89.24
41690;BME280;27372;42.658;23.256;2023-04-04T10:17:12;92760.44;;;3.88;88.50
41690;BME280;27372;42.658;23.256;2023-04-04T10:19:40;92755.38;;;3.44;89.54
41690;BME280;27372;42.658;23.256;2023-04-04T10:22:07;92756.50;;;3.48;88.77
41690;BME280;27372;42.658;23.256;2023-04-04T10:24:34;92766.31;;;3.28;90.11
41690;BME280;27372;42.658;23.256;2023-04-04T10:27:00;92765.53;;;3.27;89.51
41690;BME280;27372;42.658;23.256;2023-04-04T10:29:26;92769.19;;;3.38;88.33
41690;BME280;27372;42.658;23.256;2023-04-04T10:32:04;92784.34;;;3.22;87.57
41690;BME280;27372;42.658;23.256;2023-04-04T10:34:44;92779.38;;;3.39;88.42
41690;BME280;27372;42.658;23.256;2023-04-04T10:37:19;92773.84;;;3.10;86.61
41690;BME280;27372;42.658;23.256;2023-04-04T10:40:04;92796.94;;;3.19;89.04
41690;BME280;27372;42.658;23.256;2023-04-04T10:42:31;92798.13;;;2.98;87.48
41690;BME280;27372;42.658;23.256;2023-04-04T10:45:01;92796.38;;;2.91;89.11
41690;BME280;27372;42.658;23.256;2023-04-04T10:47:29;92793.72;;;3.42;88.76
41690;BME280;27372;42.658;23.256;2023-04-04T10:49:56;92799.19;;;3.34;88.56
41690;BME280;27372;42.658;23.256;2023-04-04T10:52:23;92806.13;;;3.40;87.74
41690;BME280;27372;42.658;23.256;2023-04-04T10:54:58;92813.41;;;3.68;87.47
41690;BME280;27372;42.658;23.256;2023-04-04T10:57:24;92808.34;;;3.55;86.15
41690;BME280;27372;42.658;23.256;2023-04-04T11:00:22;92824.31;;;3.15;86.38
41690;BME280;27372;42.658;23.256;2023-04-04T11:05:37;92806.75;;;2.91;88.23
41690;BME280;27372;42.658;23.256;2023-04-04T11:08:15;92815.63;;;3.02;88.87
41690;BME280;27372;42.658;23.256;2023-04-04T11:10:47;92808.44;;;3.04;89.11
41690;BME280;27372;42.658;23.256;2023-04-04T11:13:23;92831.19;;;2.77;88.29
41690;BME280;27372;42.658;23.256;2023-04-04T11:15:58;92835.34;;;2.85;88.77
41690;BME280;27372;42.658;23.256;2023-04-04T11:20:55;92828.91;;;3.13;87.32
41690;BME280;27372;42.658;23.256;2023-04-04T11:23:21;92838.88;;;2.90;87.73
41690;BME280;27372;42.658;23.256;2023-04-04T11:25:56;92849.16;;;3.04;89.63
41690;BME280;27372;42.658;23.256;2023-04-04T11:28:41;92855.38;;;3.03;88.59
41690;BME280;27372;42.658;23.256;2023-04-04T11:39:02;92846.31;;;2.55;89.52
41690;BME280;27372;42.658;23.256;2023-04-04T11:44:13;92851.13;;;2.51;88.13
41690;BME280;27372;42.658;23.256;2023-04-04T11:46:39;92853.47;;;2.59;87.87
41690;BME280;27372;42.658;23.256;2023-04-04T11:49:05;92845.09;;;2.57;87.43
41690;BME280;27372;42.658;23.256;2023-04-04T11:51:31;92843.50;;;2.56;88.40
41690;BME280;27372;42.658;23.256;2023-04-04T11:53:56;92850.16;;;2.45;87.52
41690;BME280;27372;42.658;23.256;2023-04-04T11:56:22;92853.50;;;2.53;88.21
41690;BME280;27372;42.658;23.256;2023-04-04T11:58:49;92844.88;;;2.27;88.25
41690;BME280;27372;42.658;23.256;2023-04-04T12:01:16;92848.19;;;2.02;89.57
41690;BME280;27372;42.658;23.256;2023-04-04T12:03:41;92829.81;;;2.10;89.68
41690;BME280;27372;42.658;23.256;2023-04-04T12:06:07;92844.06;;;1.88;90.73
41690;BME280;27372;42.658;23.256;2023-04-04T12:08:32;92850.44;;;2.30;91.33
41690;BME280;27372;42.658;23.256;2023-04-04T12:11:03;92857.47;;;2.55;90.02
41690;BME280;27372;42.658;23.256;2023-04-04T12:13:29;92855.16;;;2.72;89.09
41690;BME280;27372;42.658;23.256;2023-04-04T12:15:56;92850.75;;;2.79;89.33
41690;BME280;27372;42.658;23.256;2023-04-04T12:18:22;92864.81;;;2.65;87.56
41690;BME280;27372;42.658;23.256;2023-04-04T12:20:50;92853.66;;;2.64;87.11
41690;BME280;27372;42.658;23.256;2023-04-04T12:23:15;92862.34;;;2.70;88.27
41690;BME280;27372;42.658;23.256;2023-04-04T12:25:41;92857.31;;;2.82;87.56
41690;BME280;27372;42.658;23.256;2023-04-04T12:28:09;92862.75;;;2.74;87.71
41690;BME280;27372;42.658;23.256;2023-04-04T12:30:36;92851.69;;;2.21;88.69
41690;BME280;27372;42.658;23.256;2023-04-04T12:33:03;92863.91;;;2.46;90.56
41690;BME280;27372;42.658;23.256;2023-04-04T12:35:29;92854.72;;;2.11;92.47
41690;BME280;27372;42.658;23.256;2023-04-04T12:38:05;92865.34;;;1.96;93.86
41690;BME280;27372;42.658;23.256;2023-04-04T12:40:37;92858.66;;;2.21;93.36
41690;BME280;27372;42.658;23.256;2023-04-04T12:43:07;92866.72;;;2.44;92.34
41690;BME280;27372;42.658;23.256;2023-04-04T12:45:37;92870.69;;;2.47;91.42
41690;BME280;27372;42.658;23.256;2023-04-04T12:48:11;92864.72;;;2.01;93.67
41690;BME280;27372;42.658;23.256;2023-04-04T12:50:52;92872.59;;;1.74;94.36
41690;BME280;27372;42.658;23.256;2023-04-04T12:53:19;92871.22;;;2.17;94.64
41690;BME280;27372;42.658;23.256;2023-04-04T12:55:46;92867.97;;;2.35;93.80
41690;BME280;27372;42.658;23.256;2023-04-04T12:58:18;92873.38;;;2.27;93.62
41690;BME280;27372;42.658;23.256;2023-04-04T13:00:44;92876.44;;;2.56;92.92
41690;BME280;27372;42.658;23.256;2023-04-04T13:03:12;92880.09;;;2.73;92.45
41690;BME280;27372;42.658;23.256;2023-04-04T13:05:39;92883.81;;;2.52;90.57
41690;BME280;27372;42.658;23.256;2023-04-04T13:08:09;92878.41;;;2.15;91.78
41690;BME280;27372;42.658;23.256;2023-04-04T13:13:30;92895.34;;;2.17;92.33
41690;BME280;27372;42.658;23.256;2023-04-04T13:15:58;92891.59;;;2.07;91.43